createdAt,value
2023-02-22T00:00:23.732Z,98871.22
2023-02-22T00:02:59.678Z,98865.94
2023-02-22T00:05:28.637Z,98872.13
2023-02-22T00:07:58.652Z,98864.19
2023-02-22T00:10:26.096Z,98860.69
2023-02-22T00:12:54.628Z,98860.69
2023-02-22T00:15:27.231Z,98852.75
2023-02-22T00:17:54.917Z,98853.63
2023-02-22T00:20:23.382Z,98850.09
2023-02-22T00:22:53.620Z,98850.97
2023-02-22T00:25:22.720Z,98848.34
2023-02-22T00:27:53.864Z,98856.25
2023-02-22T00:30:26.642Z,98850.97
2023-02-22T00:32:55.952Z,98846.53
2023-02-22T00:35:25.707Z,98849.22
2023-02-22T00:37:55.699Z,98851.81
2023-02-22T00:40:25.562Z,98850.97
2023-02-22T00:42:52.197Z,98849.22
2023-02-22T00:45:22.030Z,98843.06
2023-02-22T00:47:48.853Z,98846.59
2023-02-22T00:50:17.665Z,98843.06
2023-02-22T00:52:45.085Z,98846.59
2023-02-22T00:55:18.453Z,98842.19
2023-02-22T00:57:45.320Z,98836.91
2023-02-22T01:00:22.392Z,98833.34
2023-02-22T01:02:51.754Z,98834.28
2023-02-22T01:05:22.223Z,98830.75
2023-02-22T01:07:50.894Z,98830.75
2023-02-22T01:10:20.447Z,98824.59
2023-02-22T01:12:48.424Z,98828.13
2023-02-22T01:15:15.714Z,98818.44
2023-02-22T01:17:45.496Z,98821.09
2023-02-22T01:20:14.791Z,98825.44
2023-02-22T01:22:47.142Z,98813.16
2023-02-22T01:25:18.376Z,98814.94
2023-02-22T01:27:45.010Z,98815.81
2023-02-22T01:30:13.844Z,98814.03
2023-02-22T01:32:41.974Z,98811.41
2023-02-22T01:35:13.735Z,98810.53
2023-02-22T01:37:41.067Z,98808.78
2023-02-22T01:40:10.562Z,98809.63
2023-02-22T01:42:37.114Z,98799.94
2023-02-22T01:45:32.580Z,98806.97
2023-02-22T01:48:08.661Z,98802.56
2023-02-22T01:50:47.337Z,98795.53
2023-02-22T01:53:18.357Z,98792.03
2023-02-22T01:55:47.096Z,98779.69
2023-02-22T01:58:14.780Z,98786.75
2023-02-22T02:00:41.665Z,98788.50
2023-02-22T02:03:15.055Z,98776.13
2023-02-22T02:05:42.663Z,98777.88
2023-02-22T02:08:31.055Z,98774.38
2023-02-22T02:10:59.399Z,98779.66
2023-02-22T02:13:28.250Z,98772.59
2023-02-22T02:15:57.807Z,98776.94
2023-02-22T02:18:26.294Z,98776.94
2023-02-22T02:20:59.120Z,98782.22
2023-02-22T02:24:02.586Z,98775.16
2023-02-22T02:26:32.244Z,98769.03
2023-02-22T02:29:29.942Z,98770.78
2023-02-22T02:32:08.540Z,98776.88
2023-02-22T02:35:11.445Z,98769.84
2023-02-22T02:37:57.645Z,98767.16
2023-02-22T02:40:26.837Z,98770.59
2023-02-22T02:43:15.852Z,98769.72
2023-02-22T02:45:54.443Z,98761.75
2023-02-22T02:48:26.425Z,98762.63
2023-02-22T02:50:54.758Z,98768.75
2023-02-22T02:53:27.280Z,98761.72
2023-02-22T02:55:58.982Z,98764.34
2023-02-22T02:58:25.967Z,98760.78
2023-02-22T03:00:56.711Z,98760.78
2023-02-22T03:03:45.364Z,98752.84
2023-02-22T03:06:36.786Z,98750.22
2023-02-22T03:09:38.244Z,98741.41
2023-02-22T03:12:30.561Z,98742.25
2023-02-22T03:15:00.285Z,98746.66
2023-02-22T03:17:54.673Z,98739.63
2023-02-22T03:20:37.483Z,98737.84
2023-02-22T03:23:10.604Z,98741.34
2023-02-22T03:25:43.369Z,98739.56
2023-02-22T03:28:14.093Z,98736.00
2023-02-22T03:30:53.111Z,98743.91
2023-02-22T03:33:28.815Z,98731.59
2023-02-22T03:36:00.705Z,98740.31
2023-02-22T03:38:29.766Z,98737.66
2023-02-22T03:41:01.641Z,98739.41
2023-02-22T03:43:36.637Z,98730.63
2023-02-22T03:46:05.142Z,98740.28
2023-02-22T03:48:54.361Z,98729.75
2023-02-22T03:51:21.870Z,98726.25
2023-02-22T03:53:48.607Z,98732.38
2023-02-22T03:56:23.474Z,98731.50
2023-02-22T03:58:51.684Z,98728.00
2023-02-22T04:01:19.921Z,98724.56
2023-02-22T04:03:46.509Z,98721.94
2023-02-22T04:06:13.053Z,98721.94
2023-02-22T04:08:39.626Z,98720.16
2023-02-22T04:11:06.241Z,98708.72
2023-02-22T04:13:32.821Z,98717.53
2023-02-22T04:15:59.424Z,98720.19
2023-02-22T04:18:25.912Z,98708.72
2023-02-22T04:20:52.621Z,98717.47
2023-02-22T04:23:19.081Z,98709.53
2023-02-22T04:25:45.519Z,98707.72
2023-02-22T04:28:12.459Z,98710.31
2023-02-22T04:30:38.992Z,98708.56
2023-02-22T04:33:05.545Z,98707.63
2023-02-22T04:35:35.078Z,98705.75
2023-02-22T04:38:02.472Z,98707.34
2023-02-22T04:40:28.911Z,98707.34
2023-02-22T04:42:55.459Z,98711.53
2023-02-22T04:45:22.164Z,98707.13
2023-02-22T04:47:48.706Z,98700.16
2023-02-22T04:50:16.670Z,98699.19
2023-02-22T04:52:43.148Z,98700.09
2023-02-22T04:55:10.008Z,98693.94
2023-02-22T04:57:36.488Z,98692.19
2023-02-22T05:00:05.060Z,98694.75
2023-02-22T05:02:31.934Z,98693.00
2023-02-22T05:04:58.556Z,98694.69
2023-02-22T05:07:25.014Z,98698.19
2023-02-22T05:09:51.588Z,98693.63
2023-02-22T05:12:18.058Z,98695.22
2023-02-22T05:14:44.609Z,98689.06
2023-02-22T05:17:11.050Z,98687.84
2023-02-22T05:19:37.727Z,98691.00
2023-02-22T05:22:05.659Z,98692.75
2023-02-22T05:24:32.463Z,98684.25
2023-02-22T05:26:59.034Z,98689.66
2023-02-22T05:29:25.489Z,98685.22
2023-02-22T05:31:52.125Z,98693.06
2023-02-22T05:34:18.790Z,98687.84
2023-02-22T05:36:46.462Z,98682.25
2023-02-22T05:39:13.033Z,98682.47
2023-02-22T05:41:39.525Z,98684.38
2023-02-22T05:44:06.092Z,98685.09
2023-02-22T05:46:32.626Z,98687.03
2023-02-22T05:48:59.089Z,98691.44
2023-02-22T05:51:28.608Z,98695.88
2023-02-22T05:53:55.137Z,98690.50
2023-02-22T05:56:26.208Z,98689.63
2023-02-22T05:58:53.180Z,98692.13
2023-02-22T06:01:20.551Z,98682.56
2023-02-22T06:03:48.928Z,98689.78
2023-02-22T06:06:16.604Z,98681.03
2023-02-22T06:08:43.129Z,98681.16
2023-02-22T06:11:10.109Z,98678.63
2023-02-22T06:13:37.031Z,98669.88
2023-02-22T06:16:04.761Z,98676.56
2023-02-22T06:18:31.452Z,98674.84
2023-02-22T06:20:59.103Z,98678.22
2023-02-22T06:23:26.896Z,98674.84
2023-02-22T06:25:53.380Z,98680.13
2023-02-22T06:28:19.841Z,98680.25
2023-02-22T06:30:46.419Z,98674.09
2023-02-22T06:33:14.832Z,98676.69
2023-02-22T06:35:41.369Z,98672.28
2023-02-22T06:38:07.924Z,98677.47
2023-02-22T06:40:34.569Z,98677.50
2023-02-22T06:43:01.080Z,98673.13
2023-02-22T06:45:28.722Z,98678.50
2023-02-22T06:47:55.619Z,98693.38
2023-02-22T06:50:24.648Z,98675.88
2023-02-22T06:52:51.467Z,98682.00
2023-02-22T06:55:26.696Z,98678.25
2023-02-22T06:57:53.433Z,98677.31
2023-02-22T07:00:22.075Z,98679.09
2023-02-22T07:02:48.787Z,98680.13
2023-02-22T07:05:17.091Z,98677.53
2023-02-22T07:07:43.831Z,98680.69
2023-02-22T07:10:19.820Z,98682.38
2023-02-22T07:12:46.382Z,98682.50
2023-02-22T07:15:13.712Z,98691.25
2023-02-22T07:17:41.246Z,98683.38
2023-02-22T07:20:09.072Z,98678.28
2023-02-22T07:22:35.651Z,98677.50
2023-02-22T07:25:02.163Z,98686.28
2023-02-22T07:27:28.637Z,98680.19
2023-02-22T07:29:55.298Z,98683.81
2023-02-22T07:32:21.945Z,98688.25
2023-02-22T07:34:48.487Z,98687.31
2023-02-22T07:37:14.975Z,98681.22
2023-02-22T07:39:43.648Z,98682.06
2023-02-22T07:42:10.206Z,98681.19
2023-02-22T07:44:37.304Z,98677.75
2023-02-22T07:47:03.853Z,98678.63
2023-02-22T07:49:30.301Z,98683.88
2023-02-22T07:51:59.608Z,98683.91
2023-02-22T07:54:26.070Z,98684.81
2023-02-22T07:56:52.600Z,98684.91
2023-02-22T07:59:19.074Z,98685.94
2023-02-22T08:01:45.574Z,98678.16
2023-02-22T08:04:12.030Z,98672.91
2023-02-22T08:06:38.694Z,98671.19
2023-02-22T08:09:05.250Z,98672.97
2023-02-22T08:11:31.800Z,98673.03
2023-02-22T08:13:58.259Z,98662.56
2023-02-22T08:16:24.779Z,98666.16
2023-02-22T08:18:51.265Z,98666.25
2023-02-22T08:21:18.334Z,98661.91
2023-02-22T08:23:44.988Z,98664.66
2023-02-22T08:26:15.681Z,98668.25
2023-02-22T08:28:42.185Z,98667.44
2023-02-22T08:31:09.028Z,98657.88
2023-02-22T08:33:38.395Z,98663.22
2023-02-22T08:36:05.307Z,98668.56
2023-02-22T08:38:33.902Z,98652.00
2023-02-22T08:41:00.415Z,98649.41
2023-02-22T08:43:28.515Z,98650.38
2023-02-22T08:45:57.308Z,98646.94
2023-02-22T08:48:24.312Z,98649.59
2023-02-22T08:50:50.886Z,98651.41
2023-02-22T08:53:17.619Z,98649.63
2023-02-22T08:55:44.951Z,98641.78
2023-02-22T08:58:12.171Z,98638.28
2023-02-22T09:00:40.669Z,98647.06
2023-02-22T09:03:10.270Z,98642.66
2023-02-22T09:05:36.978Z,98639.13
2023-02-22T09:08:04.339Z,98635.59
2023-02-22T09:10:32.894Z,98628.50
2023-02-22T09:13:01.090Z,98629.38
2023-02-22T09:15:28.629Z,98624.06
2023-02-22T09:17:55.772Z,98625.84
2023-02-22T09:20:23.725Z,98624.03
2023-02-22T09:22:50.504Z,98617.00
2023-02-22T09:25:18.602Z,98621.41
2023-02-22T09:27:51.039Z,98622.28
2023-02-22T09:30:32.613Z,98624.00
2023-02-22T09:33:02.599Z,98622.16
2023-02-22T09:35:29.405Z,98617.78
2023-02-22T09:37:57.752Z,98609.78
2023-02-22T09:40:29.947Z,98607.09
2023-02-22T09:43:08.107Z,98611.50
2023-02-22T09:45:45.041Z,98607.94
2023-02-22T09:48:22.033Z,98605.28
2023-02-22T09:50:52.199Z,98596.44
2023-02-22T09:53:41.695Z,98596.34
2023-02-22T09:56:11.901Z,98593.72
2023-02-22T09:58:43.050Z,98591.97
2023-02-22T10:01:15.572Z,98591.13
2023-02-22T10:04:11.659Z,98584.06
2023-02-22T10:06:42.211Z,98584.06
2023-02-22T10:09:10.409Z,98581.41
2023-02-22T10:11:42.898Z,98585.81
2023-02-22T10:14:48.766Z,98579.66
2023-02-22T10:17:28.369Z,98583.06
2023-02-22T10:20:14.884Z,98582.16
2023-02-22T10:23:13.448Z,98586.47
2023-02-22T10:25:42.267Z,98579.38
2023-02-22T10:28:21.554Z,98581.88
2023-02-22T10:30:56.576Z,98583.59
2023-02-22T10:33:31.610Z,98572.03
2023-02-22T10:35:58.675Z,98569.34
2023-02-22T10:38:28.070Z,98579.84
2023-02-22T10:41:00.887Z,98571.91
2023-02-22T10:43:27.663Z,98572.88
2023-02-22T10:45:57.930Z,98571.88
2023-02-22T10:48:28.606Z,98563.81
2023-02-22T10:51:01.986Z,98570.72
2023-02-22T10:53:29.859Z,98561.91
2023-02-22T10:56:13.323Z,98557.47
2023-02-22T10:58:53.883Z,98550.44
2023-02-22T11:01:32.394Z,98557.50
2023-02-22T11:04:15.416Z,98552.09
2023-02-22T11:06:45.018Z,98550.34
2023-02-22T11:09:22.579Z,98551.16
2023-02-22T11:11:51.244Z,98544.13
2023-02-22T11:14:30.219Z,98544.94
2023-02-22T11:16:58.633Z,98538.59
2023-02-22T11:19:31.110Z,98540.31
2023-02-22T11:22:04.050Z,98535.88
2023-02-22T11:24:40.348Z,98534.06
2023-02-22T11:27:28.289Z,98537.47
2023-02-22T11:30:07.664Z,98537.41
2023-02-22T11:32:39.616Z,98527.56
2023-02-22T11:35:24.564Z,98525.78
2023-02-22T11:37:51.044Z,98517.78
2023-02-22T11:40:22.692Z,98523.78
2023-02-22T11:43:06.006Z,98514.09
2023-02-22T11:45:32.927Z,98515.91
2023-02-22T11:48:01.843Z,98513.13
2023-02-22T11:50:54.036Z,98515.78
2023-02-22T11:53:50.329Z,98499.00
2023-02-22T11:56:37.223Z,98495.44
2023-02-22T11:59:40.695Z,98505.06
2023-02-22T12:02:56.332Z,98497.16
2023-02-22T12:05:26.697Z,98495.38
2023-02-22T12:07:56.504Z,98493.47
2023-02-22T12:11:10.064Z,98486.13
2023-02-22T12:13:42.286Z,98484.31
2023-02-22T12:16:17.361Z,98488.78
2023-02-22T12:19:03.608Z,98481.66
2023-02-22T12:21:33.936Z,98480.72
2023-02-22T12:24:07.508Z,98479.66
2023-02-22T12:26:41.203Z,98480.41
2023-02-22T12:29:47.976Z,98477.78
2023-02-22T12:32:26.556Z,98483.03
2023-02-22T12:35:10.729Z,98476.88
2023-02-22T12:37:59.080Z,98468.78
2023-02-22T12:40:39.482Z,98474.06
2023-02-22T12:43:36.480Z,98466.94
2023-02-22T12:46:12.153Z,98466.94
2023-02-22T12:48:44.694Z,98465.13
2023-02-22T12:51:38.269Z,98466.06
2023-02-22T12:54:19.594Z,98460.63
2023-02-22T12:57:05.812Z,98461.38
2023-02-22T12:59:38.789Z,98455.03
2023-02-22T13:02:17.531Z,98456.91
2023-02-22T13:04:44.066Z,98448.63
2023-02-22T13:07:32.973Z,98457.47
2023-02-22T13:10:20.346Z,98450.41
2023-02-22T13:13:07.039Z,98449.38
2023-02-22T13:15:36.313Z,98454.50
2023-02-22T13:18:17.372Z,98449.16
2023-02-22T13:20:48.539Z,98437.59
2023-02-22T13:23:39.378Z,98441.16
2023-02-22T13:26:15.185Z,98434.09
2023-02-22T13:28:49.207Z,98429.69
2023-02-22T13:31:15.864Z,98430.69
2023-02-22T13:33:48.131Z,98431.63
2023-02-22T13:36:33.037Z,98423.69
2023-02-22T13:39:19.830Z,98420.00
2023-02-22T13:41:50.693Z,98413.81
2023-02-22T13:44:38.327Z,98413.88
2023-02-22T13:47:22.555Z,98409.56
2023-02-22T13:49:59.839Z,98405.97
2023-02-22T13:52:31.715Z,98414.84
2023-02-22T13:55:02.364Z,98403.31
2023-02-22T13:57:39.319Z,98404.19
2023-02-22T14:00:41.274Z,98398.88
2023-02-22T14:03:34.199Z,98390.88
2023-02-22T14:06:01.407Z,98396.94
2023-02-22T14:08:36.640Z,98404.06
2023-02-22T14:11:31.892Z,98396.22
2023-02-22T14:14:03.250Z,98396.38
2023-02-22T14:16:31.685Z,98391.13
2023-02-22T14:19:23.628Z,98386.72
2023-02-22T14:21:57.732Z,98388.50
2023-02-22T14:24:24.390Z,98385.00
2023-02-22T14:27:04.092Z,98387.66
2023-02-22T14:29:31.523Z,98386.78
2023-02-22T14:32:03.242Z,98383.34
2023-02-22T14:35:00.288Z,98390.44
2023-02-22T14:37:36.447Z,98385.22
2023-02-22T14:40:29.978Z,98380.84
2023-02-22T14:43:13.891Z,98380.03
2023-02-22T14:45:53.474Z,98370.38
2023-02-22T14:48:43.138Z,98373.94
2023-02-22T14:51:26.933Z,98374.00
2023-02-22T14:53:56.443Z,98369.63
2023-02-22T14:56:28.572Z,98366.13
2023-02-22T14:59:24.818Z,98369.72
2023-02-22T15:02:11.994Z,98363.47
2023-02-22T15:04:41.248Z,98365.31
2023-02-22T15:07:29.580Z,98368.84
2023-02-22T15:10:07.255Z,98366.25
2023-02-22T15:12:33.837Z,98365.38
2023-02-22T15:15:21.962Z,98365.44
2023-02-22T15:17:58.705Z,98368.16
2023-02-22T15:20:25.906Z,98367.28
2023-02-22T15:22:59.757Z,98358.47
2023-02-22T15:25:30.706Z,98356.78
2023-02-22T15:28:02.256Z,98361.31
2023-02-22T15:30:34.205Z,98349.91
2023-02-22T15:33:12.528Z,98353.53
2023-02-22T15:35:39.402Z,98353.56
2023-02-22T15:38:17.652Z,98353.56
2023-02-22T15:40:45.560Z,98346.56
2023-02-22T15:43:24.696Z,98350.19
2023-02-22T15:45:52.045Z,98339.59
2023-02-22T15:48:18.687Z,98350.34
2023-02-22T15:51:06.868Z,98356.63
2023-02-22T15:53:40.703Z,98358.44
2023-02-22T15:56:12.205Z,98349.66
2023-02-22T15:58:39.169Z,98345.34
2023-02-22T16:01:14.381Z,98352.41
2023-02-22T16:03:48.635Z,98345.41
2023-02-22T16:06:30.514Z,98346.34
2023-02-22T16:09:00.386Z,98351.72
2023-02-22T16:11:38.490Z,98354.47
2023-02-22T16:14:07.317Z,98354.50
2023-02-22T16:16:36.860Z,98352.81
2023-02-22T16:19:26.626Z,98345.00
2023-02-22T16:22:02.768Z,98358.34
2023-02-22T16:24:32.191Z,98355.78
2023-02-22T16:27:17.042Z,98347.00
2023-02-22T16:29:43.933Z,98350.59
2023-02-22T16:32:10.644Z,98357.78
2023-02-22T16:34:37.663Z,98351.63
2023-02-22T16:37:04.179Z,98352.56
2023-02-22T16:39:32.446Z,98353.50
2023-02-22T16:42:05.124Z,98346.53
2023-02-22T16:44:31.634Z,98346.59
2023-02-22T16:47:03.116Z,98341.44
2023-02-22T16:49:29.643Z,98339.72
2023-02-22T16:51:59.763Z,98338.84
2023-02-22T16:54:30.162Z,98345.16
2023-02-22T16:57:02.003Z,98339.97
2023-02-22T16:59:30.734Z,98344.44
2023-02-22T17:01:58.716Z,98348.09
2023-02-22T17:04:26.510Z,98341.06
2023-02-22T17:06:59.417Z,98342.84
2023-02-22T17:09:29.584Z,98348.13
2023-02-22T17:11:57.076Z,98345.53
2023-02-22T17:14:30.454Z,98355.22
2023-02-22T17:16:59.056Z,98358.78
2023-02-22T17:19:26.337Z,98347.38
2023-02-22T17:21:53.028Z,98353.63
2023-02-22T17:24:23.137Z,98363.38
2023-02-22T17:26:50.368Z,98356.44
2023-02-22T17:29:17.837Z,98355.56
2023-02-22T17:31:44.906Z,98361.94
2023-02-22T17:34:11.709Z,98362.91
2023-02-22T17:36:38.277Z,98363.72
2023-02-22T17:39:08.969Z,98366.31
2023-02-22T17:41:35.443Z,98372.47
2023-02-22T17:44:02.157Z,98367.19
2023-02-22T17:46:31.644Z,98373.50
2023-02-22T17:48:58.286Z,98369.13
2023-02-22T17:51:26.366Z,98370.94
2023-02-22T17:53:53.274Z,98380.69
2023-02-22T17:56:20.411Z,98369.22
2023-02-22T17:58:53.441Z,98374.47
2023-02-22T18:01:27.235Z,98374.44
2023-02-22T18:03:55.300Z,98385.03
2023-02-22T18:06:25.394Z,98371.88
2023-02-22T18:08:56.544Z,98378.09
2023-02-22T18:11:26.217Z,98375.50
2023-02-22T18:13:54.425Z,98372.00
2023-02-22T18:16:21.729Z,98379.06
2023-02-22T18:18:49.639Z,98378.19
2023-02-22T18:21:16.252Z,98372.84
2023-02-22T18:23:44.744Z,98373.75
2023-02-22T18:26:16.705Z,98371.94
2023-02-22T18:28:43.236Z,98371.91
2023-02-22T18:31:15.289Z,98371.00
2023-02-22T18:33:43.907Z,98380.72
2023-02-22T18:36:14.161Z,98368.34
2023-02-22T18:38:43.165Z,98372.75
2023-02-22T18:41:12.897Z,98375.41
2023-02-22T18:43:40.474Z,98367.44
2023-02-22T18:46:11.132Z,98369.03
2023-02-22T18:48:38.551Z,98371.63
2023-02-22T18:51:09.417Z,98366.38
2023-02-22T18:53:37.197Z,98373.41
2023-02-22T18:56:09.140Z,98365.53
2023-02-22T18:58:36.130Z,98367.41
2023-02-22T19:01:03.886Z,98369.22
2023-02-22T19:03:32.597Z,98371.84
2023-02-22T19:06:03.535Z,98376.38
2023-02-22T19:08:32.403Z,98371.13
2023-02-22T19:11:04.124Z,98369.38
2023-02-22T19:13:31.594Z,98367.59
2023-02-22T19:15:58.158Z,98372.94
2023-02-22T19:18:25.034Z,98369.44
2023-02-22T19:20:58.668Z,98371.22
2023-02-22T19:23:25.572Z,98362.50
2023-02-22T19:25:52.345Z,98365.16
2023-02-22T19:28:19.046Z,98361.75
2023-02-22T19:30:45.774Z,98367.00
2023-02-22T19:33:12.360Z,98370.47
2023-02-22T19:35:38.879Z,98372.25
2023-02-22T19:38:05.337Z,98360.84
2023-02-22T19:40:32.058Z,98360.88
2023-02-22T19:42:58.595Z,98366.13
2023-02-22T19:45:25.299Z,98368.81
2023-02-22T19:47:55.517Z,98368.03
2023-02-22T19:50:22.128Z,98368.00
2023-02-22T19:52:49.001Z,98369.78
2023-02-22T19:55:15.804Z,98369.84
2023-02-22T19:57:46.405Z,98361.91
2023-02-22T20:00:14.092Z,98373.34
2023-02-22T20:02:41.624Z,98366.31
2023-02-22T20:05:12.298Z,98368.09
2023-02-22T20:07:39.074Z,98368.97
2023-02-22T20:10:07.120Z,98363.69
2023-02-22T20:12:33.901Z,98378.66
2023-02-22T20:15:00.720Z,98376.91
2023-02-22T20:17:27.709Z,98382.25
2023-02-22T20:19:54.249Z,98376.97
2023-02-22T20:22:21.971Z,98384.88
2023-02-22T20:24:49.210Z,98378.75
2023-02-22T20:27:16.401Z,98383.13
2023-02-22T20:29:42.915Z,98386.66
2023-02-22T20:32:12.426Z,98378.72
2023-02-22T20:34:39.025Z,98380.50
2023-02-22T20:37:05.545Z,98387.53
2023-02-22T20:39:32.193Z,98384.00
2023-02-22T20:42:02.705Z,98392.81
2023-02-22T20:44:29.283Z,98384.03
2023-02-22T20:46:55.974Z,98388.47
2023-02-22T20:49:22.691Z,98379.63
2023-02-22T20:51:52.906Z,98388.44
2023-02-22T20:54:19.476Z,98390.22
2023-02-22T20:56:47.171Z,98390.22
2023-02-22T20:59:17.224Z,98386.69
2023-02-22T21:01:43.931Z,98380.53
2023-02-22T21:04:11.460Z,98384.06
2023-02-22T21:06:39.504Z,98391.09
2023-02-22T21:09:10.292Z,98385.84
2023-02-22T21:11:36.797Z,98383.19
2023-02-22T21:14:03.515Z,98388.47
2023-02-22T21:16:34.471Z,98395.50
2023-02-22T21:19:03.568Z,98387.63
2023-02-22T21:21:31.005Z,98388.50
2023-02-22T21:24:02.112Z,98383.19
2023-02-22T21:26:34.334Z,98388.47
2023-02-22T21:29:04.875Z,98381.44
2023-02-22T21:31:34.438Z,98391.13
2023-02-22T21:34:02.035Z,98385.84
2023-02-22T21:36:41.119Z,98393.75
2023-02-22T21:39:26.938Z,98390.25
2023-02-22T21:41:53.458Z,98395.50
2023-02-22T21:44:20.848Z,98389.34
2023-02-22T21:46:50.731Z,98387.59
2023-02-22T21:49:17.748Z,98384.09
2023-02-22T21:51:44.868Z,98382.31
2023-02-22T21:54:12.515Z,98384.97
2023-02-22T21:56:41.845Z,98383.19
2023-02-22T21:59:14.292Z,98378.84
2023-02-22T22:01:46.977Z,98380.59
2023-02-22T22:04:22.528Z,98371.78
2023-02-22T22:06:54.016Z,98379.72
2023-02-22T22:09:23.481Z,98382.34
2023-02-22T22:12:01.437Z,98374.44
2023-02-22T22:14:30.624Z,98370.03
2023-02-22T22:17:06.250Z,98372.69
2023-02-22T22:19:39.099Z,98373.56
2023-02-22T22:22:05.685Z,98377.06
2023-02-22T22:24:34.271Z,98370.94
2023-02-22T22:27:03.752Z,98367.41
2023-02-22T22:29:31.037Z,98370.03
2023-02-22T22:31:57.655Z,98367.38
2023-02-22T22:34:29.433Z,98357.69
2023-02-22T22:37:00.587Z,98364.75
2023-02-22T22:39:27.612Z,98356.00
2023-02-22T22:41:56.723Z,98364.75
2023-02-22T22:44:32.498Z,98370.88
2023-02-22T22:46:59.182Z,98370.88
2023-02-22T22:49:28.347Z,98366.50
2023-02-22T22:51:54.802Z,98369.16
2023-02-22T22:54:21.314Z,98366.50
2023-02-22T22:56:51.464Z,98369.13
2023-02-22T22:59:17.985Z,98370.91
2023-02-22T23:01:45.148Z,98370.88
2023-02-22T23:04:16.436Z,98363.84
2023-02-22T23:06:46.547Z,98380.53
2023-02-22T23:09:22.626Z,98370.00
2023-02-22T23:11:50.862Z,98370.88
2023-02-22T23:14:21.834Z,98369.13
2023-02-22T23:17:00.043Z,98371.75
2023-02-22T23:19:28.892Z,98371.75
2023-02-22T23:21:59.124Z,98376.16
2023-02-22T23:24:29.044Z,98370.00
2023-02-22T23:27:01.857Z,98384.06
2023-02-22T23:29:30.673Z,98381.44
2023-02-22T23:32:09.137Z,98380.56
2023-02-22T23:34:36.718Z,98384.91
2023-02-22T23:37:03.577Z,98383.13
2023-02-22T23:39:30.102Z,98382.25
2023-02-22T23:42:00.936Z,98382.25
2023-02-22T23:44:28.149Z,98384.00
2023-02-22T23:46:55.827Z,98386.63
2023-02-22T23:49:41.136Z,98382.28
2023-02-22T23:52:13.792Z,98383.16
2023-02-22T23:54:46.450Z,98387.59
2023-02-22T23:57:16.351Z,98379.66
2023-02-22T23:59:43.222Z,98377.03
